< < Back
Terminal Aerodrome Forecast


Current Version              Previous Versions:   1  2  3  4  5  6  7  8  9  

Terminal Aerodrome Forecast

194
FTUS42 KFFC 241938 AAA
TAFPDK
TAF AMD
KPDK 241938Z 2420/2518 14007G15KT P6SM BKN060
     FM250000 10006KT P6SM SCT060
     FM250800 10004KT P6SM BKN012
     FM251100 10004KT P6SM BKN007
     FM251400 11005KT P6SM OVC014=

Latest METAR

487
SAUS70 KWBC 241900 RRH
MTRPDK
METAR KPDK 241853Z 17008KT 9SM BKN047 BKN055 28/16 A3028 RMK AO2 SLP239
T02780156


USA.gov is the U.S. government's official web portal to all federal, state and local government web resources and services.